sensor_id;sensor_type;location;lat;lon;timestamp;temperature;humidity
38265;DHT22;24062;47.480;8.768;2024-02-23T00:02:18;20.10;56.90
38265;DHT22;24062;47.480;8.768;2024-02-23T00:04:45;20.00;56.80
38265;DHT22;24062;47.480;8.768;2024-02-23T00:07:12;20.00;56.90
38265;DHT22;24062;47.480;8.768;2024-02-23T00:09:40;20.00;56.90
38265;DHT22;24062;47.480;8.768;2024-02-23T00:12:07;20.00;56.90
38265;DHT22;24062;47.480;8.768;2024-02-23T00:14:34;20.00;56.90
38265;DHT22;24062;47.480;8.768;2024-02-23T00:17:02;19.90;56.90
38265;DHT22;24062;47.480;8.768;2024-02-23T00:19:30;19.90;56.90
38265;DHT22;24062;47.480;8.768;2024-02-23T00:21:57;19.90;56.90
38265;DHT22;24062;47.480;8.768;2024-02-23T00:24:24;19.90;57.00
38265;DHT22;24062;47.480;8.768;2024-02-23T00:26:53;19.90;57.00
38265;DHT22;24062;47.480;8.768;2024-02-23T00:29:20;19.90;57.00
38265;DHT22;24062;47.480;8.768;2024-02-23T00:31:48;19.90;57.00
38265;DHT22;24062;47.480;8.768;2024-02-23T00:34:16;19.90;57.00
38265;DHT22;24062;47.480;8.768;2024-02-23T00:36:42;19.90;56.90
38265;DHT22;24062;47.480;8.768;2024-02-23T00:39:10;19.90;57.10
38265;DHT22;24062;47.480;8.768;2024-02-23T00:41:37;19.80;57.00
38265;DHT22;24062;47.480;8.768;2024-02-23T00:44:05;19.80;57.10
38265;DHT22;24062;47.480;8.768;2024-02-23T00:46:32;19.80;57.00
38265;DHT22;24062;47.480;8.768;2024-02-23T00:48:59;19.80;57.00
38265;DHT22;24062;47.480;8.768;2024-02-23T00:51:26;19.80;57.10
38265;DHT22;24062;47.480;8.768;2024-02-23T00:53:53;19.80;57.10
38265;DHT22;24062;47.480;8.768;2024-02-23T00:56:20;19.70;57.10
38265;DHT22;24062;47.480;8.768;2024-02-23T00:58:47;19.70;57.10
38265;DHT22;24062;47.480;8.768;2024-02-23T01:01:15;19.70;57.10
38265;DHT22;24062;47.480;8.768;2024-02-23T01:03:42;19.70;57.10
38265;DHT22;24062;47.480;8.768;2024-02-23T01:06:09;19.70;57.10
38265;DHT22;24062;47.480;8.768;2024-02-23T01:08:36;19.70;57.10
38265;DHT22;24062;47.480;8.768;2024-02-23T01:11:03;19.70;57.10
38265;DHT22;24062;47.480;8.768;2024-02-23T01:13:30;19.60;57.10
38265;DHT22;24062;47.480;8.768;2024-02-23T01:15:57;19.60;57.10
38265;DHT22;24062;47.480;8.768;2024-02-23T01:18:25;19.60;57.20
38265;DHT22;24062;47.480;8.768;2024-02-23T01:20:52;19.60;57.20
38265;DHT22;24062;47.480;8.768;2024-02-23T01:23:18;19.60;57.20
38265;DHT22;24062;47.480;8.768;2024-02-23T01:25:45;19.60;57.20
38265;DHT22;24062;47.480;8.768;2024-02-23T01:28:12;19.60;57.20
38265;DHT22;24062;47.480;8.768;2024-02-23T01:30:39;19.60;57.20
38265;DHT22;24062;47.480;8.768;2024-02-23T01:33:06;19.60;57.20
38265;DHT22;24062;47.480;8.768;2024-02-23T01:35:34;19.60;57.30
38265;DHT22;24062;47.480;8.768;2024-02-23T01:38:02;19.60;57.30
38265;DHT22;24062;47.480;8.768;2024-02-23T01:40:29;19.50;57.20
38265;DHT22;24062;47.480;8.768;2024-02-23T01:43:03;19.50;57.20
38265;DHT22;24062;47.480;8.768;2024-02-23T01:45:30;19.50;57.20
38265;DHT22;24062;47.480;8.768;2024-02-23T01:47:57;19.50;57.20
38265;DHT22;24062;47.480;8.768;2024-02-23T01:50:24;19.50;57.20
38265;DHT22;24062;47.480;8.768;2024-02-23T01:52:53;19.50;57.20
38265;DHT22;24062;47.480;8.768;2024-02-23T01:55:21;19.50;57.20
38265;DHT22;24062;47.480;8.768;2024-02-23T01:57:48;19.50;57.20
38265;DHT22;24062;47.480;8.768;2024-02-23T02:00:17;19.50;57.30
38265;DHT22;24062;47.480;8.768;2024-02-23T02:02:44;19.40;57.20
38265;DHT22;24062;47.480;8.768;2024-02-23T02:05:12;19.40;57.20
38265;DHT22;24062;47.480;8.768;2024-02-23T02:07:40;19.40;57.20
38265;DHT22;24062;47.480;8.768;2024-02-23T02:10:10;19.40;57.30
38265;DHT22;24062;47.480;8.768;2024-02-23T02:12:36;19.40;57.30
38265;DHT22;24062;47.480;8.768;2024-02-23T02:15:04;19.40;57.30
38265;DHT22;24062;47.480;8.768;2024-02-23T02:17:32;19.40;57.40
38265;DHT22;24062;47.480;8.768;2024-02-23T02:19:59;19.30;57.30
38265;DHT22;24062;47.480;8.768;2024-02-23T02:22:31;19.30;57.30
38265;DHT22;24062;47.480;8.768;2024-02-23T02:24:58;19.30;57.30
38265;DHT22;24062;47.480;8.768;2024-02-23T02:27:26;19.30;57.40
38265;DHT22;24062;47.480;8.768;2024-02-23T02:29:53;19.30;57.40
38265;DHT22;24062;47.480;8.768;2024-02-23T02:32:20;19.30;57.40
38265;DHT22;24062;47.480;8.768;2024-02-23T02:34:47;19.30;57.40
38265;DHT22;24062;47.480;8.768;2024-02-23T02:37:14;19.30;57.50
38265;DHT22;24062;47.480;8.768;2024-02-23T02:39:41;19.20;57.50
38265;DHT22;24062;47.480;8.768;2024-02-23T02:42:08;19.30;57.50
38265;DHT22;24062;47.480;8.768;2024-02-23T02:44:36;19.20;57.40
38265;DHT22;24062;47.480;8.768;2024-02-23T02:47:03;19.20;57.40
38265;DHT22;24062;47.480;8.768;2024-02-23T02:49:30;19.20;57.50
38265;DHT22;24062;47.480;8.768;2024-02-23T02:51:57;19.20;57.50
38265;DHT22;24062;47.480;8.768;2024-02-23T02:54:24;19.20;57.50
38265;DHT22;24062;47.480;8.768;2024-02-23T02:56:51;19.20;57.40
38265;DHT22;24062;47.480;8.768;2024-02-23T02:59:19;19.30;57.40
38265;DHT22;24062;47.480;8.768;2024-02-23T03:01:48;19.40;57.30
38265;DHT22;24062;47.480;8.768;2024-02-23T03:04:15;19.50;57.30
38265;DHT22;24062;47.480;8.768;2024-02-23T03:06:42;19.60;57.20
38265;DHT22;24062;47.480;8.768;2024-02-23T03:09:09;19.70;57.10
38265;DHT22;24062;47.480;8.768;2024-02-23T03:11:36;19.80;57.10
38265;DHT22;24062;47.480;8.768;2024-02-23T03:14:03;19.80;56.50
38265;DHT22;24062;47.480;8.768;2024-02-23T03:16:30;19.90;57.00
38265;DHT22;24062;47.480;8.768;2024-02-23T03:18:58;19.90;56.90
38265;DHT22;24062;47.480;8.768;2024-02-23T03:21:25;19.90;56.80
38265;DHT22;24062;47.480;8.768;2024-02-23T03:23:52;20.00;56.80
38265;DHT22;24062;47.480;8.768;2024-02-23T03:26:19;20.00;56.70
38265;DHT22;24062;47.480;8.768;2024-02-23T03:28:46;20.10;56.70
38265;DHT22;24062;47.480;8.768;2024-02-23T03:31:14;20.10;56.60
38265;DHT22;24062;47.480;8.768;2024-02-23T03:33:41;20.10;56.60
38265;DHT22;24062;47.480;8.768;2024-02-23T03:36:09;20.10;56.50
38265;DHT22;24062;47.480;8.768;2024-02-23T03:38:36;20.20;56.50
38265;DHT22;24062;47.480;8.768;2024-02-23T03:41:03;20.20;56.50
38265;DHT22;24062;47.480;8.768;2024-02-23T03:43:30;20.20;56.40
38265;DHT22;24062;47.480;8.768;2024-02-23T03:45:57;20.20;56.40
38265;DHT22;24062;47.480;8.768;2024-02-23T03:48:24;20.20;56.30
38265;DHT22;24062;47.480;8.768;2024-02-23T03:50:51;20.30;56.40
38265;DHT22;24062;47.480;8.768;2024-02-23T03:53:21;20.30;56.40
38265;DHT22;24062;47.480;8.768;2024-02-23T03:55:48;20.30;56.40
38265;DHT22;24062;47.480;8.768;2024-02-23T03:58:15;20.30;56.30
38265;DHT22;24062;47.480;8.768;2024-02-23T04:00:43;20.40;56.40
38265;DHT22;24062;47.480;8.768;2024-02-23T04:03:09;20.30;56.20
38265;DHT22;24062;47.480;8.768;2024-02-23T04:05:36;20.40;56.30
38265;DHT22;24062;47.480;8.768;2024-02-23T04:08:04;20.40;56.20
38265;DHT22;24062;47.480;8.768;2024-02-23T04:10:32;20.40;56.20
38265;DHT22;24062;47.480;8.768;2024-02-23T04:12:59;20.40;56.10
38265;DHT22;24062;47.480;8.768;2024-02-23T04:15:26;20.40;56.10
38265;DHT22;24062;47.480;8.768;2024-02-23T04:17:53;20.40;56.10
38265;DHT22;24062;47.480;8.768;2024-02-23T04:20:20;20.50;56.10
38265;DHT22;24062;47.480;8.768;2024-02-23T04:22:47;20.50;56.10
38265;DHT22;24062;47.480;8.768;2024-02-23T04:25:14;20.50;56.10
38265;DHT22;24062;47.480;8.768;2024-02-23T04:27:42;20.50;56.10
38265;DHT22;24062;47.480;8.768;2024-02-23T04:30:10;20.50;56.00
38265;DHT22;24062;47.480;8.768;2024-02-23T04:32:38;20.50;56.00
38265;DHT22;24062;47.480;8.768;2024-02-23T04:35:06;20.50;56.00
38265;DHT22;24062;47.480;8.768;2024-02-23T04:37:33;20.60;56.00
38265;DHT22;24062;47.480;8.768;2024-02-23T04:40:00;20.60;56.00
38265;DHT22;24062;47.480;8.768;2024-02-23T04:42:27;20.60;56.00
38265;DHT22;24062;47.480;8.768;2024-02-23T04:44:55;20.60;55.90
38265;DHT22;24062;47.480;8.768;2024-02-23T04:47:22;20.60;55.90
38265;DHT22;24062;47.480;8.768;2024-02-23T04:49:49;20.60;55.90
38265;DHT22;24062;47.480;8.768;2024-02-23T04:52:16;20.60;55.90
38265;DHT22;24062;47.480;8.768;2024-02-23T04:54:43;20.70;56.00
38265;DHT22;24062;47.480;8.768;2024-02-23T04:57:09;20.70;56.00
38265;DHT22;24062;47.480;8.768;2024-02-23T04:59:36;20.60;55.90
38265;DHT22;24062;47.480;8.768;2024-02-23T05:02:05;20.60;55.90
38265;DHT22;24062;47.480;8.768;2024-02-23T05:04:31;20.70;55.90
38265;DHT22;24062;47.480;8.768;2024-02-23T05:06:59;20.60;55.90
38265;DHT22;24062;47.480;8.768;2024-02-23T05:09:27;20.60;55.90
38265;DHT22;24062;47.480;8.768;2024-02-23T05:11:54;20.70;55.90
38265;DHT22;24062;47.480;8.768;2024-02-23T05:14:21;20.70;55.80
38265;DHT22;24062;47.480;8.768;2024-02-23T05:16:48;20.70;55.80
38265;DHT22;24062;47.480;8.768;2024-02-23T05:19:16;20.80;55.90
38265;DHT22;24062;47.480;8.768;2024-02-23T05:21:43;20.70;55.80
38265;DHT22;24062;47.480;8.768;2024-02-23T05:24:11;20.70;55.80
38265;DHT22;24062;47.480;8.768;2024-02-23T05:26:38;20.70;55.70
38265;DHT22;24062;47.480;8.768;2024-02-23T05:29:05;20.80;55.80
38265;DHT22;24062;47.480;8.768;2024-02-23T05:31:45;20.70;55.70
38265;DHT22;24062;47.480;8.768;2024-02-23T05:34:12;20.70;55.70
38265;DHT22;24062;47.480;8.768;2024-02-23T05:36:41;20.80;56.40
38265;DHT22;24062;47.480;8.768;2024-02-23T05:39:08;20.80;55.80
38265;DHT22;24062;47.480;8.768;2024-02-23T05:41:37;20.80;55.80
38265;DHT22;24062;47.480;8.768;2024-02-23T05:44:04;20.80;55.70
38265;DHT22;24062;47.480;8.768;2024-02-23T05:46:32;20.80;55.70
38265;DHT22;24062;47.480;8.768;2024-02-23T05:48:59;20.80;55.70
38265;DHT22;24062;47.480;8.768;2024-02-23T05:51:27;20.80;55.70
38265;DHT22;24062;47.480;8.768;2024-02-23T05:53:56;20.80;55.60
38265;DHT22;24062;47.480;8.768;2024-02-23T05:56:23;20.80;55.60
38265;DHT22;24062;47.480;8.768;2024-02-23T05:58:50;20.80;55.60
38265;DHT22;24062;47.480;8.768;2024-02-23T06:01:17;20.80;55.60
38265;DHT22;24062;47.480;8.768;2024-02-23T06:03:44;20.90;55.60
38265;DHT22;24062;47.480;8.768;2024-02-23T06:06:11;20.80;55.60
38265;DHT22;24062;47.480;8.768;2024-02-23T06:08:39;20.90;55.60
38265;DHT22;24062;47.480;8.768;2024-02-23T06:11:09;20.90;55.70
38265;DHT22;24062;47.480;8.768;2024-02-23T06:13:36;20.90;55.70
38265;DHT22;24062;47.480;8.768;2024-02-23T06:16:04;20.90;55.70
38265;DHT22;24062;47.480;8.768;2024-02-23T06:18:30;20.90;55.60
38265;DHT22;24062;47.480;8.768;2024-02-23T06:20:57;20.90;55.70
38265;DHT22;24062;47.480;8.768;2024-02-23T06:23:24;20.90;55.70
38265;DHT22;24062;47.480;8.768;2024-02-23T06:25:51;20.90;55.70
38265;DHT22;24062;47.480;8.768;2024-02-23T06:28:19;20.90;55.60
38265;DHT22;24062;47.480;8.768;2024-02-23T06:30:46;20.90;55.70
38265;DHT22;24062;47.480;8.768;2024-02-23T06:33:13;20.90;55.70
38265;DHT22;24062;47.480;8.768;2024-02-23T06:35:40;20.90;55.70
38265;DHT22;24062;47.480;8.768;2024-02-23T06:38:07;20.80;55.70
38265;DHT22;24062;47.480;8.768;2024-02-23T06:40:36;20.90;55.80
38265;DHT22;24062;47.480;8.768;2024-02-23T06:43:03;20.90;55.80
38265;DHT22;24062;47.480;8.768;2024-02-23T06:45:31;20.90;55.90
38265;DHT22;24062;47.480;8.768;2024-02-23T06:47:58;20.90;55.70
38265;DHT22;24062;47.480;8.768;2024-02-23T06:50:24;20.90;55.70
38265;DHT22;24062;47.480;8.768;2024-02-23T06:52:51;20.90;55.70
38265;DHT22;24062;47.480;8.768;2024-02-23T06:55:18;20.90;55.70
38265;DHT22;24062;47.480;8.768;2024-02-23T06:57:45;20.90;56.30
38265;DHT22;24062;47.480;8.768;2024-02-23T07:00:13;21.00;55.80
38265;DHT22;24062;47.480;8.768;2024-02-23T07:02:41;20.90;55.70
38265;DHT22;24062;47.480;8.768;2024-02-23T07:05:08;20.90;55.70
38265;DHT22;24062;47.480;8.768;2024-02-23T07:07:35;21.00;55.80
38265;DHT22;24062;47.480;8.768;2024-02-23T07:10:02;21.00;55.70
38265;DHT22;24062;47.480;8.768;2024-02-23T07:12:29;21.00;55.70
38265;DHT22;24062;47.480;8.768;2024-02-23T07:14:56;21.00;55.70
38265;DHT22;24062;47.480;8.768;2024-02-23T07:17:23;21.00;55.70
38265;DHT22;24062;47.480;8.768;2024-02-23T07:19:51;21.00;55.70
38265;DHT22;24062;47.480;8.768;2024-02-23T07:22:18;21.00;55.70
38265;DHT22;24062;47.480;8.768;2024-02-23T07:24:45;21.10;55.70
38265;DHT22;24062;47.480;8.768;2024-02-23T07:27:12;21.10;55.70
38265;DHT22;24062;47.480;8.768;2024-02-23T07:29:39;21.10;55.70
38265;DHT22;24062;47.480;8.768;2024-02-23T07:32:06;21.10;55.70
38265;DHT22;24062;47.480;8.768;2024-02-23T07:34:33;21.10;55.70
38265;DHT22;24062;47.480;8.768;2024-02-23T07:37:01;21.00;55.60
38265;DHT22;24062;47.480;8.768;2024-02-23T07:39:29;21.10;55.70
38265;DHT22;24062;47.480;8.768;2024-02-23T07:41:56;21.10;55.60
38265;DHT22;24062;47.480;8.768;2024-02-23T07:44:23;21.10;55.70
38265;DHT22;24062;47.480;8.768;2024-02-23T07:46:51;21.10;55.60
38265;DHT22;24062;47.480;8.768;2024-02-23T07:49:20;21.10;55.60
38265;DHT22;24062;47.480;8.768;2024-02-23T07:51:47;21.10;55.60
38265;DHT22;24062;47.480;8.768;2024-02-23T07:54:16;21.10;55.60
38265;DHT22;24062;47.480;8.768;2024-02-23T07:56:42;21.10;55.60
38265;DHT22;24062;47.480;8.768;2024-02-23T07:59:09;21.10;55.60
38265;DHT22;24062;47.480;8.768;2024-02-23T08:01:37;21.20;55.60
38265;DHT22;24062;47.480;8.768;2024-02-23T08:04:05;21.20;55.60
38265;DHT22;24062;47.480;8.768;2024-02-23T08:06:32;21.20;55.50
38265;DHT22;24062;47.480;8.768;2024-02-23T08:08:59;21.20;55.50
38265;DHT22;24062;47.480;8.768;2024-02-23T08:11:27;21.20;55.50
38265;DHT22;24062;47.480;8.768;2024-02-23T08:13:54;21.20;55.40
38265;DHT22;24062;47.480;8.768;2024-02-23T08:16:21;21.20;55.40
38265;DHT22;24062;47.480;8.768;2024-02-23T08:18:48;21.20;55.40
38265;DHT22;24062;47.480;8.768;2024-02-23T08:21:15;21.20;55.40
38265;DHT22;24062;47.480;8.768;2024-02-23T08:23:43;21.30;55.40
38265;DHT22;24062;47.480;8.768;2024-02-23T08:26:10;21.30;55.40
38265;DHT22;24062;47.480;8.768;2024-02-23T08:28:39;21.30;55.50
38265;DHT22;24062;47.480;8.768;2024-02-23T08:31:05;21.30;55.60
38265;DHT22;24062;47.480;8.768;2024-02-23T08:33:32;21.30;55.70
38265;DHT22;24062;47.480;8.768;2024-02-23T08:36:00;21.30;55.70
38265;DHT22;24062;47.480;8.768;2024-02-23T08:38:26;21.40;55.80
38265;DHT22;24062;47.480;8.768;2024-02-23T08:40:53;21.40;55.80
38265;DHT22;24062;47.480;8.768;2024-02-23T08:43:20;21.40;55.80
38265;DHT22;24062;47.480;8.768;2024-02-23T08:45:48;21.50;55.90
38265;DHT22;24062;47.480;8.768;2024-02-23T08:48:15;21.50;55.80
38265;DHT22;24062;47.480;8.768;2024-02-23T08:50:42;21.80;55.50
38265;DHT22;24062;47.480;8.768;2024-02-23T08:53:09;21.80;55.30
38265;DHT22;24062;47.480;8.768;2024-02-23T08:55:36;21.90;55.30
38265;DHT22;24062;47.480;8.768;2024-02-23T08:58:03;22.00;55.30
38265;DHT22;24062;47.480;8.768;2024-02-23T09:00:31;22.10;55.00
38265;DHT22;24062;47.480;8.768;2024-02-23T09:02:59;21.90;55.00
38265;DHT22;24062;47.480;8.768;2024-02-23T09:05:26;21.90;55.10
38265;DHT22;24062;47.480;8.768;2024-02-23T09:07:53;21.80;55.10
38265;DHT22;24062;47.480;8.768;2024-02-23T09:10:20;21.80;55.20
38265;DHT22;24062;47.480;8.768;2024-02-23T09:12:47;21.80;55.20
38265;DHT22;24062;47.480;8.768;2024-02-23T09:15:14;21.70;55.30
38265;DHT22;24062;47.480;8.768;2024-02-23T09:17:41;21.70;55.20
38265;DHT22;24062;47.480;8.768;2024-02-23T09:20:11;21.70;55.30
38265;DHT22;24062;47.480;8.768;2024-02-23T09:22:38;21.80;55.30
38265;DHT22;24062;47.480;8.768;2024-02-23T09:25:06;21.80;55.90
38265;DHT22;24062;47.480;8.768;2024-02-23T09:27:34;21.70;55.10
38265;DHT22;24062;47.480;8.768;2024-02-23T09:30:02;21.80;55.20
38265;DHT22;24062;47.480;8.768;2024-02-23T09:32:29;21.80;55.20
38265;DHT22;24062;47.480;8.768;2024-02-23T09:34:56;21.70;55.10
38265;DHT22;24062;47.480;8.768;2024-02-23T09:37:25;21.80;55.20
38265;DHT22;24062;47.480;8.768;2024-02-23T09:39:52;21.80;55.10
38265;DHT22;24062;47.480;8.768;2024-02-23T09:42:22;21.80;55.10
38265;DHT22;24062;47.480;8.768;2024-02-23T09:44:55;21.80;55.00
38265;DHT22;24062;47.480;8.768;2024-02-23T09:47:24;21.80;55.00
38265;DHT22;24062;47.480;8.768;2024-02-23T09:49:53;21.80;55.00
38265;DHT22;24062;47.480;8.768;2024-02-23T09:52:21;21.80;54.90
38265;DHT22;24062;47.480;8.768;2024-02-23T09:54:49;21.80;55.00
38265;DHT22;24062;47.480;8.768;2024-02-23T09:57:16;21.80;54.90
38265;DHT22;24062;47.480;8.768;2024-02-23T09:59:44;21.80;54.90
38265;DHT22;24062;47.480;8.768;2024-02-23T10:02:15;21.80;54.90
38265;DHT22;24062;47.480;8.768;2024-02-23T10:04:43;21.80;54.90
38265;DHT22;24062;47.480;8.768;2024-02-23T10:07:10;21.90;54.90
38265;DHT22;24062;47.480;8.768;2024-02-23T10:09:37;21.90;54.90
38265;DHT22;24062;47.480;8.768;2024-02-23T10:12:06;21.90;54.80
38265;DHT22;24062;47.480;8.768;2024-02-23T10:14:33;21.90;54.60
38265;DHT22;24062;47.480;8.768;2024-02-23T10:17:00;22.00;54.50
38265;DHT22;24062;47.480;8.768;2024-02-23T10:19:27;22.00;54.50
38265;DHT22;24062;47.480;8.768;2024-02-23T10:21:55;22.00;54.50
38265;DHT22;24062;47.480;8.768;2024-02-23T10:24:23;22.00;54.40
38265;DHT22;24062;47.480;8.768;2024-02-23T10:26:51;22.00;54.40
38265;DHT22;24062;47.480;8.768;2024-02-23T10:29:19;22.00;54.40
38265;DHT22;24062;47.480;8.768;2024-02-23T10:31:47;22.00;54.50
38265;DHT22;24062;47.480;8.768;2024-02-23T10:34:18;22.00;54.30
38265;DHT22;24062;47.480;8.768;2024-02-23T10:36:46;22.00;54.30
38265;DHT22;24062;47.480;8.768;2024-02-23T10:39:16;22.00;54.30
38265;DHT22;24062;47.480;8.768;2024-02-23T10:41:47;22.00;54.30
38265;DHT22;24062;47.480;8.768;2024-02-23T10:44:16;22.00;54.20
38265;DHT22;24062;47.480;8.768;2024-02-23T10:46:46;22.00;54.10
38265;DHT22;24062;47.480;8.768;2024-02-23T10:49:15;22.00;54.10
38265;DHT22;24062;47.480;8.768;2024-02-23T10:51:43;22.00;54.10
38265;DHT22;24062;47.480;8.768;2024-02-23T10:54:13;22.00;54.10
38265;DHT22;24062;47.480;8.768;2024-02-23T10:56:40;22.00;54.00
38265;DHT22;24062;47.480;8.768;2024-02-23T10:59:08;22.10;54.10
38265;DHT22;24062;47.480;8.768;2024-02-23T11:01:36;22.10;54.70
38265;DHT22;24062;47.480;8.768;2024-02-23T11:04:07;22.10;54.10
38265;DHT22;24062;47.480;8.768;2024-02-23T11:06:34;22.10;54.10
38265;DHT22;24062;47.480;8.768;2024-02-23T11:09:08;22.00;54.00
38265;DHT22;24062;47.480;8.768;2024-02-23T11:11:36;22.00;54.00
38265;DHT22;24062;47.480;8.768;2024-02-23T11:14:07;22.10;53.90
38265;DHT22;24062;47.480;8.768;2024-02-23T11:16:38;22.10;53.90
38265;DHT22;24062;47.480;8.768;2024-02-23T11:19:09;22.10;53.70
38265;DHT22;24062;47.480;8.768;2024-02-23T11:21:37;22.20;53.80
38265;DHT22;24062;47.480;8.768;2024-02-23T11:24:05;22.20;53.80
38265;DHT22;24062;47.480;8.768;2024-02-23T11:26:32;22.20;53.70
38265;DHT22;24062;47.480;8.768;2024-02-23T11:29:10;22.20;53.80
38265;DHT22;24062;47.480;8.768;2024-02-23T11:31:44;22.30;53.60
38265;DHT22;24062;47.480;8.768;2024-02-23T11:34:13;22.30;53.60
38265;DHT22;24062;47.480;8.768;2024-02-23T11:36:40;22.30;53.30
38265;DHT22;24062;47.480;8.768;2024-02-23T11:39:10;22.30;53.40
38265;DHT22;24062;47.480;8.768;2024-02-23T11:41:38;22.30;53.30
38265;DHT22;24062;47.480;8.768;2024-02-23T11:44:05;22.30;53.20
38265;DHT22;24062;47.480;8.768;2024-02-23T11:46:33;22.30;53.20
38265;DHT22;24062;47.480;8.768;2024-02-23T11:48:59;22.40;53.30
38265;DHT22;24062;47.480;8.768;2024-02-23T11:51:28;22.40;53.20
38265;DHT22;24062;47.480;8.768;2024-02-23T11:53:56;22.40;53.20
38265;DHT22;24062;47.480;8.768;2024-02-23T11:56:26;22.40;53.10
38265;DHT22;24062;47.480;8.768;2024-02-23T11:58:53;22.40;53.10
38265;DHT22;24062;47.480;8.768;2024-02-23T12:01:21;22.40;53.10
38265;DHT22;24062;47.480;8.768;2024-02-23T12:03:48;22.40;53.00
38265;DHT22;24062;47.480;8.768;2024-02-23T12:06:15;22.40;52.90
38265;DHT22;24062;47.480;8.768;2024-02-23T12:08:44;22.50;52.90
38265;DHT22;24062;47.480;8.768;2024-02-23T12:11:12;22.50;52.90
38265;DHT22;24062;47.480;8.768;2024-02-23T12:13:39;22.50;52.80
38265;DHT22;24062;47.480;8.768;2024-02-23T12:16:07;22.60;52.80
38265;DHT22;24062;47.480;8.768;2024-02-23T12:18:35;22.60;52.80
38265;DHT22;24062;47.480;8.768;2024-02-23T12:21:04;22.60;52.80
38265;DHT22;24062;47.480;8.768;2024-02-23T12:23:39;22.60;52.90
38265;DHT22;24062;47.480;8.768;2024-02-23T12:26:07;22.70;52.80
38265;DHT22;24062;47.480;8.768;2024-02-23T12:28:34;22.70;52.80
38265;DHT22;24062;47.480;8.768;2024-02-23T12:31:02;22.80;52.90
38265;DHT22;24062;47.480;8.768;2024-02-23T12:33:30;22.80;52.90
38265;DHT22;24062;47.480;8.768;2024-02-23T12:35:58;22.80;52.90
38265;DHT22;24062;47.480;8.768;2024-02-23T12:38:25;22.80;53.00
38265;DHT22;24062;47.480;8.768;2024-02-23T12:40:52;22.80;52.90
38265;DHT22;24062;47.480;8.768;2024-02-23T12:43:21;22.90;53.10
38265;DHT22;24062;47.480;8.768;2024-02-23T12:45:50;22.80;53.00
38265;DHT22;24062;47.480;8.768;2024-02-23T12:48:17;22.90;53.00
38265;DHT22;24062;47.480;8.768;2024-02-23T12:50:44;22.70;52.90
38265;DHT22;24062;47.480;8.768;2024-02-23T12:53:30;22.90;53.00
38265;DHT22;24062;47.480;8.768;2024-02-23T12:55:57;22.90;53.00
38265;DHT22;24062;47.480;8.768;2024-02-23T12:58:26;22.90;53.10
38265;DHT22;24062;47.480;8.768;2024-02-23T13:00:53;22.90;53.10
38265;DHT22;24062;47.480;8.768;2024-02-23T13:03:20;22.90;53.10
38265;DHT22;24062;47.480;8.768;2024-02-23T13:05:46;23.00;53.10
38265;DHT22;24062;47.480;8.768;2024-02-23T13:08:13;23.00;53.10
38265;DHT22;24062;47.480;8.768;2024-02-23T13:10:40;23.00;53.10
38265;DHT22;24062;47.480;8.768;2024-02-23T13:13:07;23.00;53.10
38265;DHT22;24062;47.480;8.768;2024-02-23T13:15:35;23.00;53.10
38265;DHT22;24062;47.480;8.768;2024-02-23T13:18:03;23.00;53.10
38265;DHT22;24062;47.480;8.768;2024-02-23T13:20:30;23.00;53.10
38265;DHT22;24062;47.480;8.768;2024-02-23T13:22:57;23.00;53.10
38265;DHT22;24062;47.480;8.768;2024-02-23T13:25:24;23.00;53.10
38265;DHT22;24062;47.480;8.768;2024-02-23T13:27:50;23.00;53.10
38265;DHT22;24062;47.480;8.768;2024-02-23T13:30:18;23.00;53.20
38265;DHT22;24062;47.480;8.768;2024-02-23T13:32:46;23.00;53.20
38265;DHT22;24062;47.480;8.768;2024-02-23T13:35:13;23.00;53.10
38265;DHT22;24062;47.480;8.768;2024-02-23T13:37:41;23.00;53.00
38265;DHT22;24062;47.480;8.768;2024-02-23T13:40:10;23.00;53.10
38265;DHT22;24062;47.480;8.768;2024-02-23T13:42:37;23.00;53.10
38265;DHT22;24062;47.480;8.768;2024-02-23T13:45:06;23.00;53.80
38265;DHT22;24062;47.480;8.768;2024-02-23T13:47:34;23.00;53.20
38265;DHT22;24062;47.480;8.768;2024-02-23T13:50:03;23.10;53.30
38265;DHT22;24062;47.480;8.768;2024-02-23T13:52:30;23.10;53.20
38265;DHT22;24062;47.480;8.768;2024-02-23T13:54:57;23.10;53.20
38265;DHT22;24062;47.480;8.768;2024-02-23T13:57:24;23.10;53.30
38265;DHT22;24062;47.480;8.768;2024-02-23T13:59:50;23.10;53.30
38265;DHT22;24062;47.480;8.768;2024-02-23T14:02:24;23.10;53.30
38265;DHT22;24062;47.480;8.768;2024-02-23T14:04:52;23.10;53.10
38265;DHT22;24062;47.480;8.768;2024-02-23T14:07:20;23.10;53.20
38265;DHT22;24062;47.480;8.768;2024-02-23T14:09:47;23.10;53.20
38265;DHT22;24062;47.480;8.768;2024-02-23T14:12:14;23.10;53.20
38265;DHT22;24062;47.480;8.768;2024-02-23T14:14:41;23.00;53.10
38265;DHT22;24062;47.480;8.768;2024-02-23T14:17:08;23.00;53.00
38265;DHT22;24062;47.480;8.768;2024-02-23T14:19:35;23.10;53.10
38265;DHT22;24062;47.480;8.768;2024-02-23T14:22:01;23.00;53.20
38265;DHT22;24062;47.480;8.768;2024-02-23T14:24:30;23.00;53.00
38265;DHT22;24062;47.480;8.768;2024-02-23T14:26:57;23.10;53.10
38265;DHT22;24062;47.480;8.768;2024-02-23T14:29:23;23.10;53.10
38265;DHT22;24062;47.480;8.768;2024-02-23T14:31:50;23.10;53.10
38265;DHT22;24062;47.480;8.768;2024-02-23T14:34:17;23.10;53.10
38265;DHT22;24062;47.480;8.768;2024-02-23T14:36:45;23.20;53.20
38265;DHT22;24062;47.480;8.768;2024-02-23T14:39:12;23.10;53.10
38265;DHT22;24062;47.480;8.768;2024-02-23T14:41:41;23.10;53.20
38265;DHT22;24062;47.480;8.768;2024-02-23T14:44:08;23.10;53.20
38265;DHT22;24062;47.480;8.768;2024-02-23T14:46:35;23.10;53.10
38265;DHT22;24062;47.480;8.768;2024-02-23T14:49:02;23.10;53.10
38265;DHT22;24062;47.480;8.768;2024-02-23T14:51:29;23.10;53.20
38265;DHT22;24062;47.480;8.768;2024-02-23T14:53:56;23.10;53.20
38265;DHT22;24062;47.480;8.768;2024-02-23T14:56:23;23.10;53.20
38265;DHT22;24062;47.480;8.768;2024-02-23T14:58:51;23.10;53.20
38265;DHT22;24062;47.480;8.768;2024-02-23T15:01:18;23.10;53.20
38265;DHT22;24062;47.480;8.768;2024-02-23T15:03:45;23.10;53.10
38265;DHT22;24062;47.480;8.768;2024-02-23T15:06:13;23.10;53.10
38265;DHT22;24062;47.480;8.768;2024-02-23T15:08:40;23.10;53.00
38265;DHT22;24062;47.480;8.768;2024-02-23T15:11:06;23.20;53.10
38265;DHT22;24062;47.480;8.768;2024-02-23T15:13:33;23.20;53.10
38265;DHT22;24062;47.480;8.768;2024-02-23T15:16:02;23.10;53.00
38265;DHT22;24062;47.480;8.768;2024-02-23T15:18:29;23.10;52.70
38265;DHT22;24062;47.480;8.768;2024-02-23T15:20:56;23.10;52.80
38265;DHT22;24062;47.480;8.768;2024-02-23T15:23:23;23.10;52.70
38265;DHT22;24062;47.480;8.768;2024-02-23T15:25:50;23.20;53.10
38265;DHT22;24062;47.480;8.768;2024-02-23T15:28:17;23.20;53.70
38265;DHT22;24062;47.480;8.768;2024-02-23T15:30:48;23.20;53.00
38265;DHT22;24062;47.480;8.768;2024-02-23T15:33:16;23.30;53.00